sensor_id;sensor_type;location;lat;lon;timestamp;temperature;humidity
15394;DHT22;7795;47.986;11.868;2023-05-23T00:00:05;18.50;71.00
15394;DHT22;7795;47.986;11.868;2023-05-23T00:02:31;18.40;71.10
15394;DHT22;7795;47.986;11.868;2023-05-23T00:04:57;18.40;71.10
15394;DHT22;7795;47.986;11.868;2023-05-23T00:07:23;18.40;71.10
15394;DHT22;7795;47.986;11.868;2023-05-23T00:09:50;18.40;71.20
15394;DHT22;7795;47.986;11.868;2023-05-23T00:12:15;18.40;71.30
15394;DHT22;7795;47.986;11.868;2023-05-23T00:14:41;18.30;71.10
15394;DHT22;7795;47.986;11.868;2023-05-23T00:17:07;18.30;71.10
15394;DHT22;7795;47.986;11.868;2023-05-23T00:19:34;18.30;71.10
15394;DHT22;7795;47.986;11.868;2023-05-23T00:22:00;18.30;71.20
15394;DHT22;7795;47.986;11.868;2023-05-23T00:24:27;18.20;71.20
15394;DHT22;7795;47.986;11.868;2023-05-23T00:26:54;18.20;71.40
15394;DHT22;7795;47.986;11.868;2023-05-23T00:29:20;18.20;71.60
15394;DHT22;7795;47.986;11.868;2023-05-23T00:31:46;18.10;71.70
15394;DHT22;7795;47.986;11.868;2023-05-23T00:34:12;18.10;71.80
15394;DHT22;7795;47.986;11.868;2023-05-23T00:36:38;18.10;71.90
15394;DHT22;7795;47.986;11.868;2023-05-23T00:39:06;18.10;72.00
15394;DHT22;7795;47.986;11.868;2023-05-23T00:41:32;18.10;72.10
15394;DHT22;7795;47.986;11.868;2023-05-23T00:44:00;18.10;72.30
15394;DHT22;7795;47.986;11.868;2023-05-23T00:46:26;18.10;72.40
15394;DHT22;7795;47.986;11.868;2023-05-23T00:48:52;18.10;72.50
15394;DHT22;7795;47.986;11.868;2023-05-23T00:51:19;18.10;72.60
15394;DHT22;7795;47.986;11.868;2023-05-23T00:53:45;18.10;72.80
15394;DHT22;7795;47.986;11.868;2023-05-23T00:56:11;18.10;72.90
15394;DHT22;7795;47.986;11.868;2023-05-23T00:58:38;18.20;72.90
15394;DHT22;7795;47.986;11.868;2023-05-23T01:01:05;18.20;72.80
15394;DHT22;7795;47.986;11.868;2023-05-23T01:03:31;18.30;72.80
15394;DHT22;7795;47.986;11.868;2023-05-23T01:05:58;18.30;72.80
15394;DHT22;7795;47.986;11.868;2023-05-23T01:08:23;18.30;72.80
15394;DHT22;7795;47.986;11.868;2023-05-23T01:10:50;18.30;72.70
15394;DHT22;7795;47.986;11.868;2023-05-23T01:13:21;18.30;72.80
15394;DHT22;7795;47.986;11.868;2023-05-23T01:15:53;18.30;72.90
15394;DHT22;7795;47.986;11.868;2023-05-23T01:18:25;18.40;72.90
15394;DHT22;7795;47.986;11.868;2023-05-23T01:20:56;18.40;73.70
15394;DHT22;7795;47.986;11.868;2023-05-23T01:23:46;18.40;72.80
15394;DHT22;7795;47.986;11.868;2023-05-23T01:26:30;18.40;73.30
15394;DHT22;7795;47.986;11.868;2023-05-23T01:29:02;18.40;72.80
15394;DHT22;7795;47.986;11.868;2023-05-23T01:31:35;18.40;72.70
15394;DHT22;7795;47.986;11.868;2023-05-23T01:34:02;18.40;72.60
15394;DHT22;7795;47.986;11.868;2023-05-23T01:36:28;18.50;72.60
15394;DHT22;7795;47.986;11.868;2023-05-23T01:38:53;18.50;72.60
15394;DHT22;7795;47.986;11.868;2023-05-23T01:41:19;18.50;72.60
15394;DHT22;7795;47.986;11.868;2023-05-23T01:43:46;18.50;72.70
15394;DHT22;7795;47.986;11.868;2023-05-23T01:46:13;18.50;73.60
15394;DHT22;7795;47.986;11.868;2023-05-23T01:48:41;18.50;73.00
15394;DHT22;7795;47.986;11.868;2023-05-23T01:51:07;18.50;72.90
15394;DHT22;7795;47.986;11.868;2023-05-23T01:53:33;18.50;73.00
15394;DHT22;7795;47.986;11.868;2023-05-23T01:56:00;18.50;73.00
15394;DHT22;7795;47.986;11.868;2023-05-23T01:58:28;18.50;73.00
15394;DHT22;7795;47.986;11.868;2023-05-23T02:00:53;18.60;73.00
15394;DHT22;7795;47.986;11.868;2023-05-23T02:03:21;18.60;73.00
15394;DHT22;7795;47.986;11.868;2023-05-23T02:05:47;18.60;73.00
15394;DHT22;7795;47.986;11.868;2023-05-23T02:08:13;18.60;72.90
15394;DHT22;7795;47.986;11.868;2023-05-23T02:10:39;18.70;73.00
15394;DHT22;7795;47.986;11.868;2023-05-23T02:13:05;18.70;73.00
15394;DHT22;7795;47.986;11.868;2023-05-23T02:15:30;18.60;72.90
15394;DHT22;7795;47.986;11.868;2023-05-23T02:17:56;18.70;73.00
15394;DHT22;7795;47.986;11.868;2023-05-23T02:20:24;18.60;72.90
15394;DHT22;7795;47.986;11.868;2023-05-23T02:22:50;18.60;73.10
15394;DHT22;7795;47.986;11.868;2023-05-23T02:25:16;18.60;73.00
15394;DHT22;7795;47.986;11.868;2023-05-23T02:27:41;18.60;73.10
15394;DHT22;7795;47.986;11.868;2023-05-23T02:30:08;18.70;73.20
15394;DHT22;7795;47.986;11.868;2023-05-23T02:32:34;18.70;73.30
15394;DHT22;7795;47.986;11.868;2023-05-23T02:34:59;18.70;73.40
15394;DHT22;7795;47.986;11.868;2023-05-23T02:37:27;18.70;73.50
15394;DHT22;7795;47.986;11.868;2023-05-23T02:39:53;18.70;73.60
15394;DHT22;7795;47.986;11.868;2023-05-23T02:42:19;18.70;73.50
15394;DHT22;7795;47.986;11.868;2023-05-23T02:44:45;18.70;73.50
15394;DHT22;7795;47.986;11.868;2023-05-23T02:47:10;18.70;73.60
15394;DHT22;7795;47.986;11.868;2023-05-23T02:49:36;18.80;73.70
15394;DHT22;7795;47.986;11.868;2023-05-23T02:52:02;18.80;73.70
15394;DHT22;7795;47.986;11.868;2023-05-23T02:54:29;18.80;73.70
15394;DHT22;7795;47.986;11.868;2023-05-23T02:56:55;18.90;73.70
15394;DHT22;7795;47.986;11.868;2023-05-23T02:59:21;18.90;73.50
15394;DHT22;7795;47.986;11.868;2023-05-23T03:01:47;19.00;73.50
15394;DHT22;7795;47.986;11.868;2023-05-23T03:04:13;19.00;73.40
15394;DHT22;7795;47.986;11.868;2023-05-23T03:06:39;19.10;73.30
15394;DHT22;7795;47.986;11.868;2023-05-23T03:09:07;19.10;73.20
15394;DHT22;7795;47.986;11.868;2023-05-23T03:11:34;19.20;73.20
15394;DHT22;7795;47.986;11.868;2023-05-23T03:14:00;19.20;73.20
15394;DHT22;7795;47.986;11.868;2023-05-23T03:16:26;19.30;73.10
15394;DHT22;7795;47.986;11.868;2023-05-23T03:18:51;19.30;73.00
15394;DHT22;7795;47.986;11.868;2023-05-23T03:21:17;19.30;73.00
15394;DHT22;7795;47.986;11.868;2023-05-23T03:23:43;19.30;73.00
15394;DHT22;7795;47.986;11.868;2023-05-23T03:26:09;19.40;72.90
15394;DHT22;7795;47.986;11.868;2023-05-23T03:28:36;19.40;72.80
15394;DHT22;7795;47.986;11.868;2023-05-23T03:31:02;19.40;72.90
15394;DHT22;7795;47.986;11.868;2023-05-23T03:33:27;19.40;72.80
15394;DHT22;7795;47.986;11.868;2023-05-23T03:35:53;19.50;72.80
15394;DHT22;7795;47.986;11.868;2023-05-23T03:38:19;19.50;72.80
15394;DHT22;7795;47.986;11.868;2023-05-23T03:40:45;19.50;72.80
15394;DHT22;7795;47.986;11.868;2023-05-23T03:43:11;19.50;72.90
15394;DHT22;7795;47.986;11.868;2023-05-23T03:45:38;19.50;72.90
15394;DHT22;7795;47.986;11.868;2023-05-23T03:48:04;19.50;72.90
15394;DHT22;7795;47.986;11.868;2023-05-23T03:50:30;19.50;72.90
15394;DHT22;7795;47.986;11.868;2023-05-23T03:52:56;19.50;72.90
15394;DHT22;7795;47.986;11.868;2023-05-23T03:55:22;19.50;72.90
15394;DHT22;7795;47.986;11.868;2023-05-23T03:57:48;19.50;72.90
15394;DHT22;7795;47.986;11.868;2023-05-23T04:00:15;19.50;73.00
15394;DHT22;7795;47.986;11.868;2023-05-23T04:02:42;19.50;73.10
15394;DHT22;7795;47.986;11.868;2023-05-23T04:05:08;19.50;73.20
15394;DHT22;7795;47.986;11.868;2023-05-23T04:07:34;19.50;73.20
15394;DHT22;7795;47.986;11.868;2023-05-23T04:10:01;19.50;73.10
15394;DHT22;7795;47.986;11.868;2023-05-23T04:12:27;19.50;73.20
15394;DHT22;7795;47.986;11.868;2023-05-23T04:14:55;19.50;73.20
15394;DHT22;7795;47.986;11.868;2023-05-23T04:17:20;19.40;73.10
15394;DHT22;7795;47.986;11.868;2023-05-23T04:19:48;19.40;73.10
15394;DHT22;7795;47.986;11.868;2023-05-23T04:22:14;19.40;73.20
15394;DHT22;7795;47.986;11.868;2023-05-23T04:24:40;19.40;73.20
15394;DHT22;7795;47.986;11.868;2023-05-23T04:27:06;19.40;73.30
15394;DHT22;7795;47.986;11.868;2023-05-23T04:29:32;19.40;74.10
15394;DHT22;7795;47.986;11.868;2023-05-23T04:31:59;19.40;73.30
15394;DHT22;7795;47.986;11.868;2023-05-23T04:34:25;19.40;73.40
15394;DHT22;7795;47.986;11.868;2023-05-23T04:36:52;19.40;73.40
15394;DHT22;7795;47.986;11.868;2023-05-23T04:39:19;19.40;73.50
15394;DHT22;7795;47.986;11.868;2023-05-23T04:41:45;19.40;73.40
15394;DHT22;7795;47.986;11.868;2023-05-23T04:44:10;19.50;73.40
15394;DHT22;7795;47.986;11.868;2023-05-23T04:46:36;19.50;73.30
15394;DHT22;7795;47.986;11.868;2023-05-23T04:49:06;19.50;73.30
15394;DHT22;7795;47.986;11.868;2023-05-23T04:51:32;19.60;73.20
15394;DHT22;7795;47.986;11.868;2023-05-23T04:53:59;19.60;73.10
15394;DHT22;7795;47.986;11.868;2023-05-23T04:56:25;19.60;73.10
15394;DHT22;7795;47.986;11.868;2023-05-23T04:58:52;19.70;73.20
15394;DHT22;7795;47.986;11.868;2023-05-23T05:01:18;19.70;73.10
15394;DHT22;7795;47.986;11.868;2023-05-23T05:03:44;19.70;73.00
15394;DHT22;7795;47.986;11.868;2023-05-23T05:06:10;19.80;73.00
15394;DHT22;7795;47.986;11.868;2023-05-23T05:08:35;19.80;73.00
15394;DHT22;7795;47.986;11.868;2023-05-23T05:11:02;19.80;73.00
15394;DHT22;7795;47.986;11.868;2023-05-23T05:13:28;19.80;73.00
15394;DHT22;7795;47.986;11.868;2023-05-23T05:15:54;19.90;73.00
15394;DHT22;7795;47.986;11.868;2023-05-23T05:18:20;19.90;73.00
15394;DHT22;7795;47.986;11.868;2023-05-23T05:20:46;20.00;73.00
15394;DHT22;7795;47.986;11.868;2023-05-23T05:23:11;20.00;73.00
15394;DHT22;7795;47.986;11.868;2023-05-23T05:25:37;20.00;73.00
15394;DHT22;7795;47.986;11.868;2023-05-23T05:28:04;20.00;72.90
15394;DHT22;7795;47.986;11.868;2023-05-23T05:30:30;20.10;72.90
15394;DHT22;7795;47.986;11.868;2023-05-23T05:32:59;20.10;72.80
15394;DHT22;7795;47.986;11.868;2023-05-23T05:35:26;20.20;72.90
15394;DHT22;7795;47.986;11.868;2023-05-23T05:37:52;20.20;72.90
15394;DHT22;7795;47.986;11.868;2023-05-23T05:40:18;20.20;72.90
15394;DHT22;7795;47.986;11.868;2023-05-23T05:42:44;20.30;72.90
15394;DHT22;7795;47.986;11.868;2023-05-23T05:45:11;20.30;72.80
15394;DHT22;7795;47.986;11.868;2023-05-23T05:47:37;20.40;72.90
15394;DHT22;7795;47.986;11.868;2023-05-23T05:50:04;20.40;72.80
15394;DHT22;7795;47.986;11.868;2023-05-23T05:52:29;20.40;72.80
15394;DHT22;7795;47.986;11.868;2023-05-23T05:54:55;20.50;72.80
15394;DHT22;7795;47.986;11.868;2023-05-23T05:57:22;20.50;72.80
15394;DHT22;7795;47.986;11.868;2023-05-23T05:59:48;20.60;72.80
15394;DHT22;7795;47.986;11.868;2023-05-23T06:02:15;20.60;72.60
15394;DHT22;7795;47.986;11.868;2023-05-23T06:04:41;20.60;72.80
15394;DHT22;7795;47.986;11.868;2023-05-23T06:07:06;20.70;72.90
15394;DHT22;7795;47.986;11.868;2023-05-23T06:09:32;20.70;72.90
15394;DHT22;7795;47.986;11.868;2023-05-23T06:11:58;20.70;72.90
15394;DHT22;7795;47.986;11.868;2023-05-23T06:14:24;20.80;72.90
15394;DHT22;7795;47.986;11.868;2023-05-23T06:16:50;20.80;72.80
15394;DHT22;7795;47.986;11.868;2023-05-23T06:19:17;20.80;72.70
15394;DHT22;7795;47.986;11.868;2023-05-23T06:21:43;20.90;72.90
15394;DHT22;7795;47.986;11.868;2023-05-23T06:24:09;20.90;72.80
15394;DHT22;7795;47.986;11.868;2023-05-23T06:26:35;20.90;72.80
15394;DHT22;7795;47.986;11.868;2023-05-23T06:29:02;20.90;72.80
15394;DHT22;7795;47.986;11.868;2023-05-23T06:31:27;21.00;72.70
15394;DHT22;7795;47.986;11.868;2023-05-23T06:33:53;21.00;72.70
15394;DHT22;7795;47.986;11.868;2023-05-23T06:36:21;21.00;72.70
15394;DHT22;7795;47.986;11.868;2023-05-23T06:38:46;21.00;72.60
15394;DHT22;7795;47.986;11.868;2023-05-23T06:41:12;21.00;72.60
15394;DHT22;7795;47.986;11.868;2023-05-23T06:43:38;21.00;72.60
15394;DHT22;7795;47.986;11.868;2023-05-23T06:46:04;21.10;72.60
15394;DHT22;7795;47.986;11.868;2023-05-23T06:48:30;21.10;72.50
15394;DHT22;7795;47.986;11.868;2023-05-23T06:50:55;21.10;72.60
15394;DHT22;7795;47.986;11.868;2023-05-23T06:53:22;21.10;72.70
15394;DHT22;7795;47.986;11.868;2023-05-23T06:55:48;21.10;72.90
15394;DHT22;7795;47.986;11.868;2023-05-23T06:58:14;21.20;73.00
15394;DHT22;7795;47.986;11.868;2023-05-23T07:00:40;21.20;72.90
15394;DHT22;7795;47.986;11.868;2023-05-23T07:03:06;21.30;72.90
15394;DHT22;7795;47.986;11.868;2023-05-23T07:05:32;21.30;73.00
15394;DHT22;7795;47.986;11.868;2023-05-23T07:07:58;21.40;73.20
15394;DHT22;7795;47.986;11.868;2023-05-23T07:10:26;21.50;73.00
15394;DHT22;7795;47.986;11.868;2023-05-23T07:12:52;21.60;72.80
15394;DHT22;7795;47.986;11.868;2023-05-23T07:15:17;21.70;72.50
15394;DHT22;7795;47.986;11.868;2023-05-23T07:17:43;21.70;72.40
15394;DHT22;7795;47.986;11.868;2023-05-23T07:20:10;21.80;72.30
15394;DHT22;7795;47.986;11.868;2023-05-23T07:22:36;21.90;72.00
15394;DHT22;7795;47.986;11.868;2023-05-23T07:25:01;22.00;72.00
15394;DHT22;7795;47.986;11.868;2023-05-23T07:27:28;22.00;72.60
15394;DHT22;7795;47.986;11.868;2023-05-23T07:29:54;22.10;71.70
15394;DHT22;7795;47.986;11.868;2023-05-23T07:32:21;22.20;71.80
15394;DHT22;7795;47.986;11.868;2023-05-23T07:34:47;22.30;71.70
15394;DHT22;7795;47.986;11.868;2023-05-23T07:37:13;22.30;71.50
15394;DHT22;7795;47.986;11.868;2023-05-23T07:39:40;22.40;71.40
15394;DHT22;7795;47.986;11.868;2023-05-23T07:42:06;22.50;71.10
15394;DHT22;7795;47.986;11.868;2023-05-23T07:44:33;22.60;70.70
15394;DHT22;7795;47.986;11.868;2023-05-23T07:46:59;22.60;70.70
15394;DHT22;7795;47.986;11.868;2023-05-23T07:49:24;22.70;70.60
15394;DHT22;7795;47.986;11.868;2023-05-23T07:51:51;22.70;70.50
15394;DHT22;7795;47.986;11.868;2023-05-23T07:54:17;22.80;70.30
15394;DHT22;7795;47.986;11.868;2023-05-23T07:56:42;22.90;70.90
15394;DHT22;7795;47.986;11.868;2023-05-23T07:59:08;23.00;70.00
15394;DHT22;7795;47.986;11.868;2023-05-23T08:01:36;23.10;70.10
15394;DHT22;7795;47.986;11.868;2023-05-23T08:04:01;23.10;69.70
15394;DHT22;7795;47.986;11.868;2023-05-23T08:06:28;23.20;69.70
15394;DHT22;7795;47.986;11.868;2023-05-23T08:08:54;23.30;69.50
15394;DHT22;7795;47.986;11.868;2023-05-23T08:11:20;23.40;69.20
15394;DHT22;7795;47.986;11.868;2023-05-23T08:13:45;23.50;68.90
15394;DHT22;7795;47.986;11.868;2023-05-23T08:16:11;23.50;68.60
15394;DHT22;7795;47.986;11.868;2023-05-23T08:18:38;23.60;68.40
15394;DHT22;7795;47.986;11.868;2023-05-23T08:21:04;23.60;68.20
15394;DHT22;7795;47.986;11.868;2023-05-23T08:23:31;23.60;68.30
15394;DHT22;7795;47.986;11.868;2023-05-23T08:25:56;23.60;68.30
15394;DHT22;7795;47.986;11.868;2023-05-23T08:28:22;23.70;68.20
15394;DHT22;7795;47.986;11.868;2023-05-23T08:30:48;23.70;68.20
15394;DHT22;7795;47.986;11.868;2023-05-23T08:33:14;23.70;68.10
15394;DHT22;7795;47.986;11.868;2023-05-23T08:35:41;23.80;68.00
15394;DHT22;7795;47.986;11.868;2023-05-23T08:38:08;23.80;67.90
15394;DHT22;7795;47.986;11.868;2023-05-23T08:40:35;23.90;67.90
15394;DHT22;7795;47.986;11.868;2023-05-23T08:43:01;23.90;67.60
15394;DHT22;7795;47.986;11.868;2023-05-23T08:45:27;24.00;67.60
15394;DHT22;7795;47.986;11.868;2023-05-23T08:47:55;24.00;67.30
15394;DHT22;7795;47.986;11.868;2023-05-23T08:50:21;24.10;67.10
15394;DHT22;7795;47.986;11.868;2023-05-23T08:52:52;24.10;67.00
15394;DHT22;7795;47.986;11.868;2023-05-23T08:55:19;24.10;66.60
15394;DHT22;7795;47.986;11.868;2023-05-23T08:57:46;24.20;66.60
15394;DHT22;7795;47.986;11.868;2023-05-23T09:00:14;24.20;66.20
15394;DHT22;7795;47.986;11.868;2023-05-23T09:02:42;24.20;65.80
15394;DHT22;7795;47.986;11.868;2023-05-23T09:05:08;24.20;66.50
15394;DHT22;7795;47.986;11.868;2023-05-23T09:07:34;24.30;65.60
15394;DHT22;7795;47.986;11.868;2023-05-23T09:10:03;24.30;65.60
15394;DHT22;7795;47.986;11.868;2023-05-23T09:12:29;24.30;65.50
15394;DHT22;7795;47.986;11.868;2023-05-23T09:14:55;24.30;65.60
15394;DHT22;7795;47.986;11.868;2023-05-23T09:17:22;24.40;65.60
15394;DHT22;7795;47.986;11.868;2023-05-23T09:19:48;24.40;65.60
15394;DHT22;7795;47.986;11.868;2023-05-23T09:22:14;24.40;65.60
15394;DHT22;7795;47.986;11.868;2023-05-23T09:24:40;24.50;65.60
15394;DHT22;7795;47.986;11.868;2023-05-23T09:27:07;24.50;65.60
15394;DHT22;7795;47.986;11.868;2023-05-23T09:29:36;24.60;65.40
15394;DHT22;7795;47.986;11.868;2023-05-23T09:32:10;24.60;65.30
15394;DHT22;7795;47.986;11.868;2023-05-23T09:34:39;24.60;64.90
15394;DHT22;7795;47.986;11.868;2023-05-23T09:37:05;24.70;65.00
15394;DHT22;7795;47.986;11.868;2023-05-23T09:39:31;24.70;64.90
15394;DHT22;7795;47.986;11.868;2023-05-23T09:42:01;24.70;64.80
15394;DHT22;7795;47.986;11.868;2023-05-23T09:44:28;24.80;64.70
15394;DHT22;7795;47.986;11.868;2023-05-23T09:46:54;24.80;65.00
15394;DHT22;7795;47.986;11.868;2023-05-23T09:49:20;24.70;64.10
15394;DHT22;7795;47.986;11.868;2023-05-23T09:51:56;24.70;64.00
15394;DHT22;7795;47.986;11.868;2023-05-23T09:54:22;24.70;63.80
15394;DHT22;7795;47.986;11.868;2023-05-23T09:56:49;24.70;64.10
15394;DHT22;7795;47.986;11.868;2023-05-23T09:59:17;24.60;64.10
15394;DHT22;7795;47.986;11.868;2023-05-23T10:01:50;24.70;64.20
15394;DHT22;7795;47.986;11.868;2023-05-23T10:04:20;24.70;64.00
15394;DHT22;7795;47.986;11.868;2023-05-23T10:06:50;24.60;64.00
15394;DHT22;7795;47.986;11.868;2023-05-23T10:09:20;24.60;64.00
15394;DHT22;7795;47.986;11.868;2023-05-23T10:12:34;24.70;64.00
15394;DHT22;7795;47.986;11.868;2023-05-23T10:15:03;24.70;63.50
15394;DHT22;7795;47.986;11.868;2023-05-23T10:17:37;24.70;63.80
15394;DHT22;7795;47.986;11.868;2023-05-23T10:20:09;24.70;63.30
15394;DHT22;7795;47.986;11.868;2023-05-23T10:22:35;24.80;63.50
15394;DHT22;7795;47.986;11.868;2023-05-23T10:25:02;24.80;64.60
15394;DHT22;7795;47.986;11.868;2023-05-23T10:27:28;24.80;63.70
15394;DHT22;7795;47.986;11.868;2023-05-23T10:29:54;24.80;63.70
15394;DHT22;7795;47.986;11.868;2023-05-23T10:32:20;24.80;63.50
15394;DHT22;7795;47.986;11.868;2023-05-23T10:34:55;24.90;63.50
15394;DHT22;7795;47.986;11.868;2023-05-23T10:37:26;24.90;62.80
15394;DHT22;7795;47.986;11.868;2023-05-23T10:40:00;25.00;62.80
15394;DHT22;7795;47.986;11.868;2023-05-23T10:42:38;25.00;62.50
15394;DHT22;7795;47.986;11.868;2023-05-23T10:45:18;25.10;62.30
15394;DHT22;7795;47.986;11.868;2023-05-23T10:47:46;25.10;62.10
15394;DHT22;7795;47.986;11.868;2023-05-23T10:50:15;25.10;62.30
15394;DHT22;7795;47.986;11.868;2023-05-23T10:52:42;25.10;62.10
15394;DHT22;7795;47.986;11.868;2023-05-23T10:55:12;25.10;62.10
15394;DHT22;7795;47.986;11.868;2023-05-23T10:57:39;25.20;62.60
15394;DHT22;7795;47.986;11.868;2023-05-23T11:00:12;25.10;62.10
15394;DHT22;7795;47.986;11.868;2023-05-23T11:02:46;25.20;61.80
15394;DHT22;7795;47.986;11.868;2023-05-23T11:05:20;25.20;61.70
15394;DHT22;7795;47.986;11.868;2023-05-23T11:08:06;25.20;61.80
15394;DHT22;7795;47.986;11.868;2023-05-23T11:10:32;25.20;61.30
15394;DHT22;7795;47.986;11.868;2023-05-23T11:13:07;25.20;61.70
15394;DHT22;7795;47.986;11.868;2023-05-23T11:15:41;25.20;61.40
15394;DHT22;7795;47.986;11.868;2023-05-23T11:18:07;25.20;61.10
15394;DHT22;7795;47.986;11.868;2023-05-23T11:20:36;25.10;61.20
15394;DHT22;7795;47.986;11.868;2023-05-23T11:23:06;25.10;61.20
15394;DHT22;7795;47.986;11.868;2023-05-23T11:25:39;25.10;61.50
15394;DHT22;7795;47.986;11.868;2023-05-23T11:28:06;25.00;61.30
15394;DHT22;7795;47.986;11.868;2023-05-23T11:30:34;25.00;61.40
15394;DHT22;7795;47.986;11.868;2023-05-23T11:33:05;25.00;61.20
15394;DHT22;7795;47.986;11.868;2023-05-23T11:35:39;25.00;61.20
15394;DHT22;7795;47.986;11.868;2023-05-23T11:38:05;24.90;61.70
15394;DHT22;7795;47.986;11.868;2023-05-23T11:40:32;24.90;61.40
15394;DHT22;7795;47.986;11.868;2023-05-23T11:42:59;25.00;61.30
15394;DHT22;7795;47.986;11.868;2023-05-23T11:45:26;25.00;61.10
15394;DHT22;7795;47.986;11.868;2023-05-23T11:47:52;25.00;61.10
15394;DHT22;7795;47.986;11.868;2023-05-23T11:50:18;25.00;60.70
15394;DHT22;7795;47.986;11.868;2023-05-23T11:52:50;25.10;60.60
15394;DHT22;7795;47.986;11.868;2023-05-23T11:55:16;25.10;60.40
15394;DHT22;7795;47.986;11.868;2023-05-23T11:57:43;25.10;60.60
15394;DHT22;7795;47.986;11.868;2023-05-23T12:00:13;25.20;60.50
15394;DHT22;7795;47.986;11.868;2023-05-23T12:02:39;25.20;60.00
15394;DHT22;7795;47.986;11.868;2023-05-23T12:05:07;25.20;60.30
15394;DHT22;7795;47.986;11.868;2023-05-23T12:07:33;25.20;60.10
15394;DHT22;7795;47.986;11.868;2023-05-23T12:10:02;25.20;60.50
15394;DHT22;7795;47.986;11.868;2023-05-23T12:12:30;25.30;60.30
15394;DHT22;7795;47.986;11.868;2023-05-23T12:14:56;25.30;60.00
15394;DHT22;7795;47.986;11.868;2023-05-23T12:17:22;25.30;59.70
15394;DHT22;7795;47.986;11.868;2023-05-23T12:19:48;25.40;59.70
15394;DHT22;7795;47.986;11.868;2023-05-23T12:22:14;25.40;59.70
15394;DHT22;7795;47.986;11.868;2023-05-23T12:24:44;25.40;59.70
15394;DHT22;7795;47.986;11.868;2023-05-23T12:27:15;25.50;59.40
15394;DHT22;7795;47.986;11.868;2023-05-23T12:29:49;25.50;59.70
15394;DHT22;7795;47.986;11.868;2023-05-23T12:32:17;25.60;59.20
15394;DHT22;7795;47.986;11.868;2023-05-23T12:34:43;25.60;59.20
15394;DHT22;7795;47.986;11.868;2023-05-23T12:37:11;25.70;59.20
15394;DHT22;7795;47.986;11.868;2023-05-23T12:39:37;25.80;58.90
15394;DHT22;7795;47.986;11.868;2023-05-23T12:42:06;25.80;58.80
15394;DHT22;7795;47.986;11.868;2023-05-23T12:44:40;25.80;58.60
15394;DHT22;7795;47.986;11.868;2023-05-23T12:47:06;25.90;58.60
15394;DHT22;7795;47.986;11.868;2023-05-23T12:49:31;25.90;58.90
15394;DHT22;7795;47.986;11.868;2023-05-23T12:51:57;25.90;59.00
15394;DHT22;7795;47.986;11.868;2023-05-23T12:54:23;25.90;59.00
15394;DHT22;7795;47.986;11.868;2023-05-23T12:56:49;25.90;59.10
15394;DHT22;7795;47.986;11.868;2023-05-23T12:59:14;25.80;59.20
15394;DHT22;7795;47.986;11.868;2023-05-23T13:01:42;25.80;59.40
15394;DHT22;7795;47.986;11.868;2023-05-23T13:04:07;25.80;59.50
15394;DHT22;7795;47.986;11.868;2023-05-23T13:06:33;25.70;59.30
15394;DHT22;7795;47.986;11.868;2023-05-23T13:08:59;25.70;59.30
15394;DHT22;7795;47.986;11.868;2023-05-23T13:11:25;25.70;59.50
15394;DHT22;7795;47.986;11.868;2023-05-23T13:13:51;25.70;59.30
15394;DHT22;7795;47.986;11.868;2023-05-23T13:16:17;25.70;59.20
15394;DHT22;7795;47.986;11.868;2023-05-23T13:18:44;25.70;59.30
15394;DHT22;7795;47.986;11.868;2023-05-23T13:21:10;25.70;59.80
15394;DHT22;7795;47.986;11.868;2023-05-23T13:23:36;25.70;59.70
15394;DHT22;7795;47.986;11.868;2023-05-23T13:26:03;25.60;59.40
15394;DHT22;7795;47.986;11.868;2023-05-23T13:28:29;25.60;59.00
15394;DHT22;7795;47.986;11.868;2023-05-23T13:30:55;25.50;58.50
15394;DHT22;7795;47.986;11.868;2023-05-23T13:33:21;25.40;58.30
15394;DHT22;7795;47.986;11.868;2023-05-23T13:35:49;25.30;58.30
15394;DHT22;7795;47.986;11.868;2023-05-23T13:38:17;25.20;58.30
15394;DHT22;7795;47.986;11.868;2023-05-23T13:40:43;25.10;58.50
15394;DHT22;7795;47.986;11.868;2023-05-23T13:43:09;25.00;58.70
15394;DHT22;7795;47.986;11.868;2023-05-23T13:45:34;24.90;59.10
15394;DHT22;7795;47.986;11.868;2023-05-23T13:48:00;24.70;59.60
15394;DHT22;7795;47.986;11.868;2023-05-23T13:50:26;24.60;60.20
15394;DHT22;7795;47.986;11.868;2023-05-23T13:52:54;24.50;60.40
15394;DHT22;7795;47.986;11.868;2023-05-23T13:55:20;24.40;61.50
15394;DHT22;7795;47.986;11.868;2023-05-23T13:57:47;24.20;61.30
15394;DHT22;7795;47.986;11.868;2023-05-23T14:00:13;24.00;61.80
15394;DHT22;7795;47.986;11.868;2023-05-23T14:02:40;23.80;62.10
15394;DHT22;7795;47.986;11.868;2023-05-23T14:05:06;23.70;62.40
15394;DHT22;7795;47.986;11.868;2023-05-23T14:07:33;23.50;62.70
15394;DHT22;7795;47.986;11.868;2023-05-23T14:10:00;23.30;63.20
15394;DHT22;7795;47.986;11.868;2023-05-23T14:12:26;23.10;63.50
15394;DHT22;7795;47.986;11.868;2023-05-23T14:14:52;22.90;63.80
15394;DHT22;7795;47.986;11.868;2023-05-23T14:17:17;22.80;64.10
15394;DHT22;7795;47.986;11.868;2023-05-23T14:19:44;22.60;64.40
15394;DHT22;7795;47.986;11.868;2023-05-23T14:22:10;22.40;64.90
15394;DHT22;7795;47.986;11.868;2023-05-23T14:24:36;22.30;65.40
15394;DHT22;7795;47.986;11.868;2023-05-23T14:27:03;22.10;65.60
15394;DHT22;7795;47.986;11.868;2023-05-23T14:29:29;22.00;66.00
15394;DHT22;7795;47.986;11.868;2023-05-23T14:31:55;21.90;66.20
15394;DHT22;7795;47.986;11.868;2023-05-23T14:34:21;21.80;66.80
15394;DHT22;7795;47.986;11.868;2023-05-23T14:36:46;21.80;67.20
15394;DHT22;7795;47.986;11.868;2023-05-23T14:39:12;21.70;67.30
15394;DHT22;7795;47.986;11.868;2023-05-23T14:41:38;21.70;67.40
15394;DHT22;7795;47.986;11.868;2023-05-23T14:44:06;21.60;67.50
15394;DHT22;7795;47.986;11.868;2023-05-23T14:46:31;21.50;67.60
15394;DHT22;7795;47.986;11.868;2023-05-23T14:48:57;21.50;67.60
15394;DHT22;7795;47.986;11.868;2023-05-23T14:51:23;21.40;67.70
15394;DHT22;7795;47.986;11.868;2023-05-23T14:53:48;21.40;68.00
15394;DHT22;7795;47.986;11.868;2023-05-23T14:56:14;21.30;68.10
15394;DHT22;7795;47.986;11.868;2023-05-23T14:58:40;21.30;68.30
15394;DHT22;7795;47.986;11.868;2023-05-23T15:01:11;21.20;68.60
15394;DHT22;7795;47.986;11.868;2023-05-23T15:03:37;21.20;68.80
15394;DHT22;7795;47.986;11.868;2023-05-23T15:06:03;21.20;69.00
15394;DHT22;7795;47.986;11.868;2023-05-23T15:08:30;21.10;69.20
15394;DHT22;7795;47.986;11.868;2023-05-23T15:10:56;21.10;69.40
15394;DHT22;7795;47.986;11.868;2023-05-23T15:13:22;21.10;69.90
15394;DHT22;7795;47.986;11.868;2023-05-23T15:15:48;21.20;70.30
15394;DHT22;7795;47.986;11.868;2023-05-23T15:18:15;21.20;70.50
15394;DHT22;7795;47.986;11.868;2023-05-23T15:20:41;21.30;70.60
15394;DHT22;7795;47.986;11.868;2023-05-23T15:23:06;21.30;70.50
15394;DHT22;7795;47.986;11.868;2023-05-23T15:25:32;21.30;70.50
15394;DHT22;7795;47.986;11.868;2023-05-23T15:27:58;21.40;70.80